createdAt,value
2019-05-22T00:01:14.860Z,99.90
2019-05-22T00:03:48.780Z,99.90
2019-05-22T00:06:20.508Z,99.90
2019-05-22T00:08:49.187Z,99.90
2019-05-22T00:11:18.800Z,99.90
2019-05-22T00:13:47.137Z,99.90
2019-05-22T00:16:15.494Z,99.90
2019-05-22T00:18:43.367Z,99.90
2019-05-22T00:21:12.199Z,99.90
2019-05-22T00:23:40.505Z,99.90
2019-05-22T00:26:08.127Z,99.90
2019-05-22T00:28:37.803Z,99.90
2019-05-22T00:31:06.282Z,99.90
2019-05-22T00:33:36.430Z,99.90
2019-05-22T00:36:06.112Z,99.90
2019-05-22T00:38:34.257Z,99.90
2019-05-22T00:41:07.122Z,99.90
2019-05-22T00:43:38.819Z,99.90
2019-05-22T00:46:07.371Z,99.90
2019-05-22T00:48:35.360Z,99.90
2019-05-22T00:51:25.378Z,99.90
2019-05-22T00:54:07.873Z,99.90
2019-05-22T00:56:51.511Z,99.90
2019-05-22T00:59:26.208Z,99.90
2019-05-22T01:01:56.633Z,99.90
2019-05-22T01:04:31.342Z,99.90
2019-05-22T01:07:00.285Z,99.90
2019-05-22T01:09:38.552Z,99.90
2019-05-22T01:12:13.195Z,99.90
2019-05-22T01:14:43.120Z,99.90
2019-05-22T01:17:11.939Z,99.90
2019-05-22T01:19:40.161Z,99.90
2019-05-22T01:22:09.518Z,99.90
2019-05-22T01:24:37.651Z,99.90
2019-05-22T01:27:07.053Z,99.90
2019-05-22T01:29:36.530Z,99.90
2019-05-22T01:32:16.110Z,99.90
2019-05-22T01:34:43.937Z,99.90
2019-05-22T01:37:13.921Z,99.90
2019-05-22T01:39:55.070Z,99.90
2019-05-22T01:42:29.661Z,99.90
2019-05-22T01:45:05.875Z,99.90
2019-05-22T01:47:44.099Z,99.90
2019-05-22T01:50:17.723Z,99.90
2019-05-22T01:52:47.747Z,99.90
2019-05-22T01:55:18.081Z,99.90
2019-05-22T01:57:47.187Z,99.90
2019-05-22T02:00:16.127Z,99.90
2019-05-22T02:02:46.182Z,99.90
2019-05-22T02:05:15.513Z,99.90
2019-05-22T02:07:44.951Z,99.90
2019-05-22T02:10:19.419Z,99.90
2019-05-22T02:12:52.167Z,99.90
2019-05-22T02:15:21.286Z,99.90
2019-05-22T02:17:49.719Z,99.90
2019-05-22T02:20:19.157Z,99.90
2019-05-22T02:22:49.307Z,99.90
2019-05-22T02:25:17.772Z,99.90
2019-05-22T02:27:45.595Z,99.90
2019-05-22T02:30:15.988Z,99.90
2019-05-22T02:32:44.298Z,99.90
2019-05-22T02:35:12.991Z,99.90
2019-05-22T02:37:42.152Z,99.90
2019-05-22T02:40:17.956Z,99.90
2019-05-22T02:42:46.205Z,99.90
2019-05-22T02:45:13.951Z,99.90
2019-05-22T02:47:41.849Z,99.90
2019-05-22T02:50:10.555Z,99.90
2019-05-22T02:52:38.086Z,99.90
2019-05-22T02:55:06.219Z,99.90
2019-05-22T02:57:35.178Z,99.90
2019-05-22T03:00:03.339Z,99.90
2019-05-22T03:02:31.847Z,99.90
2019-05-22T03:05:05.391Z,99.90
2019-05-22T03:07:33.112Z,99.90
2019-05-22T03:10:01.798Z,99.90
2019-05-22T03:12:31.854Z,99.90
2019-05-22T03:15:00.609Z,99.90
2019-05-22T03:17:30.436Z,99.90
2019-05-22T03:20:00.776Z,99.90
2019-05-22T03:22:36.157Z,99.90
2019-05-22T03:25:08.192Z,99.90
2019-05-22T03:27:42.653Z,99.90
2019-05-22T03:30:23.666Z,99.90
2019-05-22T03:32:53.040Z,99.90
2019-05-22T03:35:21.909Z,99.90
2019-05-22T03:37:50.084Z,99.90
2019-05-22T03:40:18.124Z,99.90
2019-05-22T03:42:48.512Z,99.90
2019-05-22T03:45:16.145Z,99.90
2019-05-22T03:47:45.548Z,99.90
2019-05-22T03:50:14.758Z,99.90
2019-05-22T03:52:43.151Z,99.90
2019-05-22T03:55:11.179Z,99.90
2019-05-22T03:57:39.323Z,99.90
2019-05-22T04:00:10.381Z,99.90
2019-05-22T04:02:38.136Z,99.90
2019-05-22T04:05:08.012Z,99.90
2019-05-22T04:07:35.558Z,99.90
2019-05-22T04:10:04.815Z,99.90
2019-05-22T04:12:32.537Z,99.90
2019-05-22T04:15:00.777Z,99.90
2019-05-22T04:17:30.060Z,99.90
2019-05-22T04:19:57.624Z,99.90
2019-05-22T04:22:25.253Z,99.90
2019-05-22T04:24:52.979Z,99.90
2019-05-22T04:27:22.043Z,99.90
2019-05-22T04:29:50.509Z,99.90
2019-05-22T04:32:37.274Z,99.90
2019-05-22T04:35:06.772Z,99.90
2019-05-22T04:37:34.957Z,99.90
2019-05-22T04:40:45.012Z,99.90
2019-05-22T04:43:13.285Z,99.90
2019-05-22T04:45:41.496Z,99.90
2019-05-22T04:48:09.711Z,99.90
2019-05-22T04:50:37.654Z,99.90
2019-05-22T04:53:05.696Z,99.90
2019-05-22T04:55:34.032Z,99.90
2019-05-22T04:58:03.886Z,99.90
2019-05-22T05:00:31.973Z,99.90
2019-05-22T05:03:00.128Z,99.90
2019-05-22T05:05:32.829Z,99.90
2019-05-22T05:08:01.438Z,99.90
2019-05-22T05:10:30.113Z,99.90
2019-05-22T05:12:58.482Z,99.90
2019-05-22T05:15:26.236Z,99.90
2019-05-22T05:17:54.000Z,99.90
2019-05-22T05:20:22.916Z,99.90
2019-05-22T05:22:50.821Z,99.90
2019-05-22T05:25:19.304Z,99.90
2019-05-22T05:27:47.437Z,99.90
2019-05-22T05:30:16.762Z,99.90
2019-05-22T05:32:44.776Z,99.90
2019-05-22T05:35:14.016Z,99.90
2019-05-22T05:38:07.509Z,99.90
2019-05-22T05:40:43.096Z,99.90
2019-05-22T05:43:12.290Z,99.90
2019-05-22T05:45:41.861Z,99.90
2019-05-22T05:48:11.606Z,99.90
2019-05-22T05:50:57.981Z,99.90
2019-05-22T05:53:26.368Z,99.90
2019-05-22T05:56:14.108Z,99.90
2019-05-22T05:58:42.444Z,99.90
2019-05-22T06:01:37.959Z,99.90
2019-05-22T06:04:05.926Z,99.90
2019-05-22T06:07:16.046Z,99.90
2019-05-22T06:09:44.855Z,99.90
2019-05-22T06:12:12.461Z,99.90
2019-05-22T06:14:42.131Z,99.90
2019-05-22T06:17:51.177Z,99.90
2019-05-22T06:20:21.036Z,99.90
2019-05-22T06:23:28.236Z,99.90
2019-05-22T06:25:57.624Z,99.90
2019-05-22T06:28:28.426Z,99.90
2019-05-22T06:30:57.590Z,99.90
2019-05-22T06:33:30.807Z,99.90
2019-05-22T06:36:01.671Z,99.90
2019-05-22T06:38:54.694Z,99.90
2019-05-22T06:41:24.863Z,99.90
2019-05-22T06:44:34.512Z,99.90
2019-05-22T06:47:03.621Z,99.90
2019-05-22T06:49:38.869Z,99.90
2019-05-22T06:52:07.619Z,99.90
2019-05-22T06:54:37.869Z,99.90
2019-05-22T06:57:11.736Z,99.90
2019-05-22T06:59:40.480Z,99.90
2019-05-22T07:02:11.733Z,99.90
2019-05-22T07:04:39.243Z,99.90
2019-05-22T07:07:11.600Z,99.90
2019-05-22T07:09:37.918Z,99.90
2019-05-22T07:12:05.505Z,99.90
2019-05-22T07:14:33.202Z,99.90
2019-05-22T07:17:00.952Z,99.90
2019-05-22T07:19:28.482Z,99.90
2019-05-22T07:21:56.156Z,99.90
2019-05-22T07:24:24.478Z,99.90
2019-05-22T07:26:52.328Z,99.90
2019-05-22T07:29:19.968Z,99.90
2019-05-22T07:31:47.969Z,99.90
2019-05-22T07:34:15.718Z,99.90
2019-05-22T07:36:44.486Z,99.90
2019-05-22T07:39:12.120Z,99.90
2019-05-22T07:41:43.124Z,99.90
2019-05-22T07:44:10.659Z,99.90
2019-05-22T07:46:39.018Z,99.90
2019-05-22T07:49:07.347Z,99.90
2019-05-22T07:51:51.442Z,99.90
2019-05-22T07:54:06.024Z,99.90
2019-05-22T07:56:35.214Z,99.90
2019-05-22T07:59:03.528Z,99.90
2019-05-22T08:01:32.902Z,99.90
2019-05-22T08:04:01.827Z,99.90
2019-05-22T08:06:29.358Z,99.90
2019-05-22T08:08:58.070Z,99.90
2019-05-22T08:11:25.651Z,99.90
2019-05-22T08:13:53.457Z,99.90
2019-05-22T08:16:21.368Z,99.90
2019-05-22T08:18:49.421Z,99.90
2019-05-22T08:21:18.234Z,99.90
2019-05-22T08:23:46.150Z,99.90
2019-05-22T08:26:16.019Z,99.90
2019-05-22T08:28:43.719Z,99.90
2019-05-22T08:31:12.474Z,99.90
2019-05-22T08:33:40.419Z,99.90
2019-05-22T08:36:08.647Z,99.90
2019-05-22T08:38:36.695Z,99.90
2019-05-22T08:41:06.518Z,99.90
2019-05-22T08:43:55.866Z,99.90
2019-05-22T08:46:05.299Z,99.90
2019-05-22T08:48:33.939Z,99.90
2019-05-22T08:51:02.226Z,99.90
2019-05-22T08:53:46.209Z,99.90
2019-05-22T08:56:00.116Z,99.90
2019-05-22T08:58:28.081Z,99.90
2019-05-22T09:00:56.575Z,99.90
2019-05-22T09:03:24.223Z,99.90
2019-05-22T09:05:52.322Z,99.90
2019-05-22T09:08:20.582Z,99.90
2019-05-22T09:10:48.676Z,99.90
2019-05-22T09:13:16.331Z,99.90
2019-05-22T09:15:44.162Z,99.90
2019-05-22T09:18:11.968Z,99.90
2019-05-22T09:20:48.837Z,99.90
2019-05-22T09:23:11.225Z,99.90
2019-05-22T09:25:38.785Z,99.90
2019-05-22T09:28:06.609Z,99.90
2019-05-22T09:30:34.476Z,99.90
2019-05-22T09:33:02.241Z,99.90
2019-05-22T09:35:30.566Z,99.90
2019-05-22T09:37:59.025Z,99.90
2019-05-22T09:40:26.695Z,99.90
2019-05-22T09:42:54.539Z,99.90
2019-05-22T09:45:22.186Z,99.90
2019-05-22T09:47:50.827Z,99.90
2019-05-22T09:50:19.002Z,99.90
2019-05-22T09:52:56.809Z,99.90
2019-05-22T09:55:16.782Z,99.90
2019-05-22T09:57:44.800Z,99.90
2019-05-22T10:00:14.779Z,99.90
2019-05-22T10:02:42.851Z,99.90
2019-05-22T10:05:11.335Z,99.90
2019-05-22T10:07:57.138Z,99.90
2019-05-22T10:10:09.301Z,99.90
2019-05-22T10:12:40.166Z,99.90
2019-05-22T10:15:09.352Z,99.90
2019-05-22T10:17:45.082Z,99.90
2019-05-22T10:20:13.078Z,99.90
2019-05-22T10:22:41.040Z,99.90
2019-05-22T10:25:15.984Z,99.90
2019-05-22T10:27:38.972Z,99.90
2019-05-22T10:30:07.833Z,99.90
2019-05-22T10:32:37.077Z,99.90
2019-05-22T10:35:06.503Z,99.90
2019-05-22T10:37:37.785Z,99.90
2019-05-22T10:40:05.987Z,99.90
2019-05-22T10:42:35.720Z,99.90
2019-05-22T10:45:05.473Z,99.90
2019-05-22T10:47:34.569Z,99.90
2019-05-22T10:50:03.549Z,99.90
2019-05-22T10:52:31.444Z,99.90
2019-05-22T10:54:59.359Z,99.90
2019-05-22T10:57:27.227Z,99.90
2019-05-22T10:59:55.184Z,99.90
2019-05-22T11:02:24.650Z,99.90
2019-05-22T11:04:52.589Z,99.90
2019-05-22T11:07:23.890Z,99.90
2019-05-22T11:09:54.723Z,99.90
2019-05-22T11:12:22.160Z,99.90
2019-05-22T11:14:49.861Z,99.90
2019-05-22T11:17:17.879Z,99.90
2019-05-22T11:19:45.317Z,99.90
2019-05-22T11:22:12.842Z,99.90
2019-05-22T11:24:40.254Z,99.90
2019-05-22T11:27:09.732Z,99.90
2019-05-22T11:29:37.507Z,99.90
2019-05-22T11:32:06.438Z,99.90
2019-05-22T11:34:34.109Z,99.90
2019-05-22T11:37:01.619Z,99.90
2019-05-22T11:39:38.790Z,99.90
2019-05-22T11:41:59.204Z,99.90
2019-05-22T11:44:27.200Z,99.40
2019-05-22T11:46:54.727Z,98.60
2019-05-22T11:49:22.961Z,94.80
2019-05-22T11:51:50.787Z,97.80
2019-05-22T11:54:18.322Z,98.10
2019-05-22T11:56:46.991Z,96.50
2019-05-22T11:59:14.789Z,94.00
2019-05-22T12:01:44.147Z,93.30
2019-05-22T12:04:12.418Z,94.50
2019-05-22T12:06:41.316Z,96.10
2019-05-22T12:09:10.846Z,96.50
2019-05-22T12:11:38.551Z,93.60
2019-05-22T12:14:08.506Z,92.50
2019-05-22T12:16:39.934Z,92.40
2019-05-22T12:19:08.755Z,92.60
2019-05-22T12:21:36.816Z,93.50
2019-05-22T12:24:05.747Z,92.80
2019-05-22T12:26:33.502Z,93.30
2019-05-22T12:29:01.255Z,92.20
2019-05-22T12:31:29.238Z,91.30
2019-05-22T12:33:56.900Z,92.20
2019-05-22T12:36:24.431Z,91.90
2019-05-22T12:38:52.777Z,92.80
2019-05-22T12:41:20.249Z,94.40
2019-05-22T12:43:48.208Z,90.10
2019-05-22T12:46:17.144Z,90.00
2019-05-22T12:48:45.015Z,90.60
2019-05-22T12:51:13.315Z,84.40
2019-05-22T12:53:41.494Z,82.60
2019-05-22T12:56:09.110Z,82.30
2019-05-22T12:58:37.598Z,88.10
2019-05-22T13:01:05.491Z,87.10
2019-05-22T13:03:34.774Z,86.20
2019-05-22T13:06:02.532Z,89.40
2019-05-22T13:08:30.314Z,84.20
2019-05-22T13:10:57.982Z,81.60
2019-05-22T13:13:26.255Z,80.80
2019-05-22T13:15:53.774Z,77.90
2019-05-22T13:18:22.088Z,72.60
2019-05-22T13:20:50.440Z,74.40
2019-05-22T13:23:22.049Z,71.80
2019-05-22T13:25:50.292Z,70.00
2019-05-22T13:28:18.364Z,70.30
2019-05-22T13:30:52.940Z,70.60
2019-05-22T13:33:24.199Z,70.50
2019-05-22T13:35:51.742Z,71.10
2019-05-22T13:38:19.493Z,70.30
2019-05-22T13:40:48.996Z,70.10
2019-05-22T13:43:17.283Z,70.30
2019-05-22T13:45:44.755Z,72.80
2019-05-22T13:48:12.512Z,74.70
2019-05-22T13:50:40.279Z,73.50
2019-05-22T13:53:10.270Z,76.40
2019-05-22T13:55:38.604Z,72.30
2019-05-22T13:58:07.017Z,75.10
2019-05-22T14:00:35.830Z,74.40
2019-05-22T14:03:03.728Z,70.90
2019-05-22T14:05:33.170Z,72.50
2019-05-22T14:08:00.844Z,72.10
2019-05-22T14:10:28.836Z,75.30
2019-05-22T14:12:56.501Z,73.30
2019-05-22T14:15:24.507Z,74.00
2019-05-22T14:17:52.162Z,75.80
2019-05-22T14:20:20.234Z,77.10
2019-05-22T14:22:58.600Z,76.20
2019-05-22T14:25:26.529Z,74.60
2019-05-22T14:27:54.353Z,73.60
2019-05-22T14:30:24.448Z,73.10
2019-05-22T14:32:52.103Z,70.00
2019-05-22T14:35:21.677Z,71.20
2019-05-22T14:37:49.374Z,66.30
2019-05-22T14:40:18.126Z,66.70
2019-05-22T14:42:46.043Z,65.90
2019-05-22T14:45:16.412Z,66.80
2019-05-22T14:47:44.049Z,70.30
2019-05-22T14:50:14.716Z,69.30
2019-05-22T14:53:06.469Z,67.00
2019-05-22T14:55:36.362Z,65.90
2019-05-22T14:58:04.801Z,64.20
2019-05-22T15:00:32.975Z,63.30
2019-05-22T15:03:00.740Z,63.20
2019-05-22T15:05:29.067Z,65.10
2019-05-22T15:07:57.024Z,65.00
2019-05-22T15:10:26.363Z,62.20
2019-05-22T15:13:07.120Z,63.80
2019-05-22T15:15:35.278Z,63.60
2019-05-22T15:18:03.337Z,64.70
2019-05-22T15:20:52.024Z,62.70
2019-05-22T15:23:22.526Z,63.10
2019-05-22T15:25:51.161Z,63.50
2019-05-22T15:28:19.200Z,64.10
2019-05-22T15:30:46.849Z,64.70
2019-05-22T15:33:48.045Z,64.50
2019-05-22T15:36:18.586Z,64.40
2019-05-22T15:38:57.026Z,64.60
2019-05-22T15:41:28.182Z,63.80
2019-05-22T15:43:56.758Z,64.50
2019-05-22T15:46:24.823Z,63.70
2019-05-22T15:48:53.471Z,64.40
2019-05-22T15:51:29.696Z,64.30
2019-05-22T15:54:02.852Z,65.20
2019-05-22T15:56:35.521Z,65.50
2019-05-22T15:59:06.348Z,66.60
2019-05-22T16:01:39.619Z,66.70
2019-05-22T16:04:11.110Z,67.10
2019-05-22T16:06:38.853Z,66.40
2019-05-22T16:09:10.277Z,65.60
2019-05-22T16:11:38.257Z,68.10
2019-05-22T16:14:07.097Z,64.70
2019-05-22T16:16:36.039Z,65.90
2019-05-22T16:19:06.860Z,66.70
2019-05-22T16:21:37.820Z,68.50
2019-05-22T16:24:06.577Z,67.60
2019-05-22T16:26:35.171Z,69.10
2019-05-22T16:29:03.205Z,69.80
2019-05-22T16:31:32.064Z,70.40
2019-05-22T16:34:00.064Z,69.40
2019-05-22T16:36:29.003Z,68.60
2019-05-22T16:38:57.398Z,67.70
2019-05-22T16:41:27.393Z,64.30
2019-05-22T16:43:55.775Z,65.50
2019-05-22T16:46:25.122Z,66.00
2019-05-22T16:48:53.238Z,65.90
2019-05-22T16:51:21.707Z,65.10
2019-05-22T16:53:52.641Z,67.00
2019-05-22T16:56:22.664Z,66.30
2019-05-22T16:58:58.339Z,66.00
2019-05-22T17:01:26.697Z,66.00
2019-05-22T17:04:02.320Z,65.50
2019-05-22T17:06:33.970Z,65.10
2019-05-22T17:09:03.907Z,66.40
2019-05-22T17:11:35.341Z,65.70
2019-05-22T17:14:06.054Z,65.40
2019-05-22T17:16:40.809Z,66.30
2019-05-22T17:19:25.710Z,64.10
2019-05-22T17:21:41.665Z,64.30
2019-05-22T17:24:18.481Z,65.60
2019-05-22T17:26:49.670Z,65.70
2019-05-22T17:29:17.941Z,67.00
2019-05-22T17:31:45.958Z,66.80
2019-05-22T17:34:31.551Z,66.80
2019-05-22T17:37:05.591Z,67.50
2019-05-22T17:39:36.208Z,70.70
2019-05-22T17:42:07.298Z,70.00
2019-05-22T17:44:35.735Z,68.80
2019-05-22T17:47:06.317Z,69.40
2019-05-22T17:49:33.145Z,70.00
2019-05-22T17:52:01.038Z,69.90
2019-05-22T17:54:32.901Z,70.50
2019-05-22T17:57:01.355Z,71.00
2019-05-22T17:59:29.649Z,71.30
2019-05-22T18:01:57.636Z,71.30
2019-05-22T18:04:25.416Z,71.00
2019-05-22T18:06:55.205Z,70.60
2019-05-22T18:09:23.881Z,69.00
2019-05-22T18:11:51.673Z,69.70
2019-05-22T18:14:19.500Z,71.10
2019-05-22T18:16:47.061Z,71.00
2019-05-22T18:19:14.846Z,72.60
2019-05-22T18:21:43.122Z,72.60
2019-05-22T18:24:11.790Z,72.90
2019-05-22T18:26:39.604Z,74.70
2019-05-22T18:29:09.150Z,73.30
2019-05-22T18:31:36.846Z,74.60
2019-05-22T18:34:04.798Z,75.40
2019-05-22T18:36:33.471Z,74.00
2019-05-22T18:39:01.184Z,76.30
2019-05-22T18:41:29.135Z,71.30
2019-05-22T18:43:57.578Z,73.60
2019-05-22T18:46:25.111Z,76.50
2019-05-22T18:48:52.693Z,76.20
2019-05-22T18:51:20.997Z,74.00
2019-05-22T18:53:49.063Z,74.70
2019-05-22T18:56:16.983Z,79.10
2019-05-22T18:58:45.658Z,80.50
2019-05-22T19:01:16.233Z,83.30
2019-05-22T19:03:42.921Z,82.90
2019-05-22T19:06:11.714Z,81.60
2019-05-22T19:08:39.623Z,83.50
2019-05-22T19:11:07.205Z,83.70
2019-05-22T19:13:34.806Z,85.50
2019-05-22T19:16:03.354Z,86.20
2019-05-22T19:18:30.933Z,86.60
2019-05-22T19:20:58.862Z,86.80
2019-05-22T19:23:26.535Z,89.30
2019-05-22T19:25:54.388Z,90.40
2019-05-22T19:28:22.359Z,91.70
2019-05-22T19:30:49.932Z,93.00
2019-05-22T19:33:17.627Z,93.70
2019-05-22T19:35:45.237Z,94.10
2019-05-22T19:38:12.954Z,94.80
2019-05-22T19:40:40.811Z,95.30
2019-05-22T19:43:08.553Z,96.60
2019-05-22T19:45:36.371Z,96.10
2019-05-22T19:48:09.360Z,96.80
2019-05-22T19:50:37.183Z,97.30
2019-05-22T19:53:18.348Z,99.10
2019-05-22T19:55:35.264Z,99.90
2019-05-22T19:58:03.336Z,99.90
2019-05-22T20:00:31.038Z,99.90
2019-05-22T20:03:01.717Z,99.90
2019-05-22T20:05:29.927Z,99.90
2019-05-22T20:07:57.482Z,99.90
2019-05-22T20:10:25.356Z,99.90
2019-05-22T20:12:53.958Z,99.90
2019-05-22T20:15:22.011Z,99.90
2019-05-22T20:17:50.983Z,99.90
2019-05-22T20:20:19.239Z,99.90
2019-05-22T20:22:46.906Z,99.90
2019-05-22T20:25:14.888Z,99.90
2019-05-22T20:27:42.836Z,99.90
2019-05-22T20:30:20.666Z,99.90
2019-05-22T20:32:51.524Z,99.90
2019-05-22T20:35:21.860Z,99.90
2019-05-22T20:37:55.644Z,99.90
2019-05-22T20:40:24.438Z,99.90
2019-05-22T20:42:52.049Z,99.90
2019-05-22T20:45:23.338Z,99.90
2019-05-22T20:48:06.108Z,99.90
2019-05-22T20:50:34.876Z,99.90
2019-05-22T20:53:05.297Z,99.90
2019-05-22T20:55:33.835Z,99.90
2019-05-22T20:58:01.529Z,99.90
2019-05-22T21:00:31.331Z,99.90
2019-05-22T21:03:03.490Z,99.90
2019-05-22T21:05:31.538Z,99.90
2019-05-22T21:08:06.616Z,99.90
2019-05-22T21:10:35.091Z,99.90
2019-05-22T21:13:04.817Z,99.90
2019-05-22T21:15:33.421Z,99.90
2019-05-22T21:18:03.054Z,99.90
2019-05-22T21:20:31.915Z,99.90
2019-05-22T21:23:00.683Z,99.90
2019-05-22T21:25:28.778Z,99.90
2019-05-22T21:27:56.390Z,99.90
2019-05-22T21:30:25.530Z,99.90
2019-05-22T21:32:53.218Z,99.90
2019-05-22T21:35:22.133Z,99.90
2019-05-22T21:37:49.838Z,99.90
2019-05-22T21:40:19.339Z,99.90
2019-05-22T21:42:48.198Z,99.90
2019-05-22T21:45:16.479Z,99.90
2019-05-22T21:47:45.474Z,99.90
2019-05-22T21:50:14.640Z,99.90
2019-05-22T21:52:43.113Z,99.90
2019-05-22T21:55:11.856Z,99.90
2019-05-22T21:57:40.245Z,99.90
2019-05-22T22:00:12.821Z,99.90
2019-05-22T22:02:46.157Z,99.90
2019-05-22T22:05:14.435Z,99.90
2019-05-22T22:07:43.200Z,99.90
2019-05-22T22:10:11.742Z,99.90
2019-05-22T22:12:41.053Z,99.90
2019-05-22T22:15:09.895Z,99.90
2019-05-22T22:17:38.853Z,99.90
2019-05-22T22:20:07.115Z,99.90
2019-05-22T22:22:36.153Z,99.90
2019-05-22T22:25:04.849Z,99.90
2019-05-22T22:27:33.230Z,99.90
2019-05-22T22:30:02.898Z,99.90
2019-05-22T22:32:31.784Z,99.90
2019-05-22T22:34:59.381Z,99.90
2019-05-22T22:37:28.413Z,99.90
2019-05-22T22:39:56.580Z,99.90
2019-05-22T22:42:27.893Z,99.90
2019-05-22T22:44:56.768Z,99.90
2019-05-22T22:47:29.984Z,99.90
2019-05-22T22:49:57.621Z,99.90
2019-05-22T22:52:27.151Z,99.90
2019-05-22T22:54:55.735Z,99.90
2019-05-22T22:57:23.135Z,99.90
2019-05-22T22:59:50.997Z,99.90
2019-05-22T23:02:22.309Z,99.90
2019-05-22T23:04:50.442Z,99.90
2019-05-22T23:07:19.799Z,99.90
2019-05-22T23:09:48.028Z,99.90
2019-05-22T23:12:17.098Z,99.90
2019-05-22T23:14:50.231Z,99.90
2019-05-22T23:17:18.219Z,99.90
2019-05-22T23:19:51.027Z,99.90
2019-05-22T23:22:27.230Z,99.90
2019-05-22T23:24:55.831Z,99.90
2019-05-22T23:27:24.643Z,99.90
2019-05-22T23:29:53.595Z,99.90
2019-05-22T23:32:22.102Z,99.90
2019-05-22T23:34:50.290Z,99.90
2019-05-22T23:37:21.788Z,99.90
2019-05-22T23:39:52.403Z,99.90
2019-05-22T23:42:26.462Z,99.90
2019-05-22T23:44:56.476Z,99.90
2019-05-22T23:47:24.369Z,99.90
2019-05-22T23:49:53.057Z,99.90
2019-05-22T23:52:20.725Z,99.90
2019-05-22T23:54:48.834Z,99.90
2019-05-22T23:57:17.752Z,99.90
2019-05-22T23:59:48.665Z,99.90
